Time;durP1;ratioP1;P1;durP2;ratioP2;P2;SDS_P1;SDS_P2;PMS_P1;PMS_P2;Temp;Humidity;BMP_temperature;BMP_pressure;BME280_temperature;BME280_humidity;BME280_pressure;Samples;Min_cycle;Max_cycle;Signal;HPM_P1;HPM_P2
2022/06/22 00:00:07;;;;;;;;;;;14.80;99.90;;;;;;4995209;28;20367;-63
2022/06/22 00:02:35;;;;;;;;;;;14.70;99.90;;;;;;4994283;28;19913;-62
2022/06/22 00:05:03;;;;;;;;;;;14.60;99.90;;;;;;4994328;28;20294;-62
2022/06/22 00:07:31;;;;;;;;;;;14.60;99.90;;;;;;4994173;28;20374;-61
2022/06/22 00:10:14;;;;;;;;;;;14.60;99.90;;;;;;4991804;28;19932;-61
2022/06/22 00:12:40;;;;;;;;;;;14.60;99.90;;;;;;4994553;28;19912;-62
2022/06/22 00:15:38;;;;;;;;;;;14.60;99.90;;;;;;4993495;28;20364;-60
2022/06/22 00:18:21;;;;;;;;;;;14.60;99.90;;;;;;4974460;28;19910;-60
2022/06/22 00:20:50;;;;;;;;;;;14.60;99.90;;;;;;4992402;28;19910;-60
2022/06/22 00:23:23;;;;;;;;;;;14.60;99.90;;;;;;4992287;28;19912;-62
2022/06/22 00:25:48;;;;;;;;;;;14.60;99.90;;;;;;4992358;28;19957;-61
2022/06/22 00:28:28;;;;;;;;;;;14.60;99.90;;;;;;4993404;28;20353;-62
2022/06/22 00:30:59;;;;;;;;;;;14.60;99.90;;;;;;4990823;28;20008;-63
2022/06/22 00:33:24;;;;;;;;;;;14.50;99.90;;;;;;4993314;28;19996;-62
2022/06/22 00:36:12;;;;;;;;;;;14.50;99.90;;;;;;4993558;28;20657;-61
2022/06/22 00:38:38;;;;;;;;;;;14.50;99.90;;;;;;4992977;28;19953;-62
2022/06/22 00:41:16;;;;;;;;;;;14.50;99.90;;;;;;4992289;28;19913;-62
2022/06/22 00:43:41;;;;;;;;;;;14.40;99.90;;;;;;4991570;28;19960;-61
2022/06/22 00:46:21;;;;;;;;;;;14.40;99.90;;;;;;4993522;28;19945;-62
2022/06/22 00:48:48;;;;;;;;;;;14.50;99.90;;;;;;4992084;28;19921;-63
2022/06/22 00:51:16;;;;;;;;;;;14.50;99.90;;;;;;4993541;28;20359;-61
2022/06/22 00:53:42;;;;;;;;;;;14.50;99.90;;;;;;4991533;28;19906;-62
2022/06/22 00:56:20;;;;;;;;;;;14.50;99.90;;;;;;4992595;28;19917;-61
2022/06/22 00:58:52;;;;;;;;;;;14.40;99.90;;;;;;4990248;28;20260;-60
2022/06/22 01:01:20;;;;;;;;;;;14.40;99.90;;;;;;4993586;28;19910;-60
2022/06/22 01:04:06;;;;;;;;;;;14.40;99.90;;;;;;4994095;28;19910;-62
2022/06/22 01:06:53;;;;;;;;;;;14.40;99.90;;;;;;4992960;28;19912;-62
2022/06/22 01:09:45;;;;;;;;;;;14.40;99.90;;;;;;4991068;28;19909;-61
2022/06/22 01:12:16;;;;;;;;;;;14.40;99.90;;;;;;4992795;28;20331;-62
2022/06/22 01:14:52;;;;;;;;;;;14.30;99.90;;;;;;4990271;28;19956;-61
2022/06/22 01:17:20;;;;;;;;;;;14.40;99.90;;;;;;4992010;28;20069;-61
2022/06/22 01:19:50;;;;;;;;;;;14.40;99.90;;;;;;4993454;28;19906;-61
2022/06/22 01:22:16;;;;;;;;;;;14.30;99.90;;;;;;4993276;28;20004;-62
2022/06/22 01:24:55;;;;;;;;;;;14.30;99.90;;;;;;4993389;28;20008;-62
2022/06/22 01:27:21;;;;;;;;;;;14.30;99.90;;;;;;4991999;28;19920;-61
2022/06/22 01:29:57;;;;;;;;;;;14.30;99.90;;;;;;4993215;28;20369;-63
2022/06/22 01:32:26;;;;;;;;;;;14.30;99.90;;;;;;4993195;28;19905;-61
2022/06/22 01:34:55;;;;;;;;;;;14.30;99.90;;;;;;4993069;28;19905;-62
2022/06/22 01:37:23;;;;;;;;;;;14.30;99.90;;;;;;4993369;28;19960;-62
2022/06/22 01:39:48;;;;;;;;;;;14.30;99.90;;;;;;4993120;28;20036;-62
2022/06/22 01:42:17;;;;;;;;;;;14.20;99.90;;;;;;4993331;28;19937;-62
2022/06/22 01:44:50;;;;;;;;;;;14.20;99.90;;;;;;4991437;28;19964;-62
2022/06/22 01:47:24;;;;;;;;;;;14.20;99.90;;;;;;4991708;28;19906;-62
2022/06/22 01:49:50;;;;;;;;;;;14.20;99.90;;;;;;4991616;28;19906;-61
2022/06/22 01:52:34;;;;;;;;;;;14.20;99.90;;;;;;4996299;28;19906;-62
2022/06/22 01:55:01;;;;;;;;;;;14.20;99.90;;;;;;4996333;28;20322;-59
2022/06/22 01:57:40;;;;;;;;;;;14.30;99.90;;;;;;4994643;28;19973;-61
2022/06/22 02:00:12;;;;;;;;;;;14.20;99.90;;;;;;4993820;28;20457;-61
2022/06/22 02:02:56;;;;;;;;;;;14.20;99.90;;;;;;4995386;28;19905;-63
2022/06/22 02:05:32;;;;;;;;;;;14.10;99.90;;;;;;4995833;28;20279;-62
2022/06/22 02:07:57;;;;;;;;;;;14.10;99.90;;;;;;4994980;28;19910;-62
2022/06/22 02:10:38;;;;;;;;;;;14.10;99.90;;;;;;4994757;28;19917;-61
2022/06/22 02:13:09;;;;;;;;;;;14.00;99.90;;;;;;4994768;28;19906;-61
2022/06/22 02:15:37;;;;;;;;;;;14.00;99.90;;;;;;4996019;28;20283;-61
2022/06/22 02:18:03;;;;;;;;;;;14.00;99.90;;;;;;4996064;28;19910;-62
2022/06/22 02:20:36;;;;;;;;;;;14.00;99.90;;;;;;4996295;28;20038;-62
2022/06/22 02:23:04;;;;;;;;;;;13.90;99.90;;;;;;4994334;28;19964;-62
2022/06/22 02:25:32;;;;;;;;;;;14.00;99.90;;;;;;4996108;28;19978;-62
2022/06/22 02:27:57;;;;;;;;;;;13.90;99.90;;;;;;4994674;28;19996;-62
2022/06/22 02:30:23;;;;;;;;;;;13.80;99.90;;;;;;4994766;28;20407;-63
2022/06/22 02:32:49;;;;;;;;;;;13.90;99.90;;;;;;4994305;28;19905;-63
2022/06/22 02:35:15;;;;;;;;;;;13.90;99.90;;;;;;4995777;28;20264;-63
2022/06/22 02:37:45;;;;;;;;;;;13.90;99.90;;;;;;4995726;28;19909;-62
2022/06/22 02:40:14;;;;;;;;;;;13.80;99.90;;;;;;4996141;28;19906;-62
2022/06/22 02:45:24;;;;;;;;;;;13.80;99.90;;;;;;4996752;28;20318;-61
2022/06/22 02:47:58;;;;;;;;;;;13.70;99.90;;;;;;4996463;28;19914;-62
2022/06/22 02:50:23;;;;;;;;;;;13.70;99.90;;;;;;4997011;28;19906;-62
2022/06/22 02:53:09;;;;;;;;;;;13.70;99.90;;;;;;4996386;28;20005;-61
2022/06/22 02:55:35;;;;;;;;;;;13.70;99.90;;;;;;4992358;28;19905;-61
2022/06/22 02:58:02;;;;;;;;;;;13.70;99.90;;;;;;4996219;28;19977;-62
2022/06/22 03:00:29;;;;;;;;;;;13.70;99.90;;;;;;4994804;28;19916;-62
2022/06/22 03:03:03;;;;;;;;;;;13.70;99.90;;;;;;4994614;28;19905;-62
2022/06/22 03:05:29;;;;;;;;;;;13.70;99.90;;;;;;4996419;28;19917;-62
2022/06/22 03:07:56;;;;;;;;;;;13.70;99.90;;;;;;4996177;28;19905;-62
2022/06/22 03:10:24;;;;;;;;;;;13.70;99.90;;;;;;4995883;28;19905;-62
2022/06/22 03:12:51;;;;;;;;;;;13.60;99.90;;;;;;4995889;28;19906;-62
2022/06/22 03:15:20;;;;;;;;;;;13.70;99.90;;;;;;4996231;28;19905;-62
2022/06/22 03:17:46;;;;;;;;;;;13.70;99.90;;;;;;4996412;28;19968;-60
2022/06/22 03:20:19;;;;;;;;;;;13.70;99.90;;;;;;4996652;28;19905;-62
2022/06/22 03:22:47;;;;;;;;;;;13.60;99.90;;;;;;4997707;28;19944;-62
2022/06/22 03:25:24;;;;;;;;;;;13.70;99.90;;;;;;4997666;28;20000;-62
2022/06/22 03:27:51;;;;;;;;;;;13.70;99.90;;;;;;4996266;28;19912;-62
2022/06/22 03:30:26;;;;;;;;;;;13.70;99.90;;;;;;4996131;28;19905;-63
2022/06/22 03:32:54;;;;;;;;;;;13.60;99.90;;;;;;4995883;28;19906;-62
2022/06/22 03:35:24;;;;;;;;;;;13.60;99.90;;;;;;4995579;28;19906;-62
2022/06/22 03:38:02;;;;;;;;;;;13.50;99.90;;;;;;4994405;28;19906;-62
2022/06/22 03:40:31;;;;;;;;;;;13.50;99.90;;;;;;4995610;28;19914;-61
2022/06/22 03:43:13;;;;;;;;;;;13.50;99.90;;;;;;4995183;28;19914;-61
2022/06/22 03:45:41;;;;;;;;;;;13.50;99.90;;;;;;4995583;28;19917;-62
2022/06/22 03:48:24;;;;;;;;;;;13.50;99.90;;;;;;5034666;22;20353;-56
2022/06/22 03:50:53;;;;;;;;;;;13.50;99.90;;;;;;5014944;28;20357;-57
2022/06/22 03:53:24;;;;;;;;;;;13.50;99.90;;;;;;5014315;28;19909;-56
2022/06/22 03:55:52;;;;;;;;;;;13.60;99.90;;;;;;5014339;28;19912;-58
2022/06/22 03:58:20;;;;;;;;;;;13.50;99.90;;;;;;5014903;28;20408;-59
2022/06/22 04:00:46;;;;;;;;;;;13.60;99.90;;;;;;5015184;28;19913;-58
2022/06/22 04:03:13;;;;;;;;;;;13.60;99.90;;;;;;5013947;28;19909;-57
2022/06/22 04:05:41;;;;;;;;;;;13.60;99.90;;;;;;5014362;28;19914;-55
2022/06/22 04:08:09;;;;;;;;;;;13.60;99.90;;;;;;5014253;28;19905;-59
2022/06/22 04:10:41;;;;;;;;;;;13.60;99.90;;;;;;5014334;28;19989;-56
2022/06/22 04:13:18;;;;;;;;;;;13.60;99.90;;;;;;5013558;28;19923;-57
2022/06/22 04:16:01;;;;;;;;;;;13.60;99.90;;;;;;5014252;28;20362;-58
2022/06/22 04:18:31;;;;;;;;;;;13.60;99.90;;;;;;5014451;28;20365;-58
2022/06/22 04:21:04;;;;;;;;;;;13.70;99.90;;;;;;5013905;28;19912;-58
2022/06/22 04:23:32;;;;;;;;;;;13.70;99.90;;;;;;5013943;28;19959;-57
2022/06/22 04:26:03;;;;;;;;;;;13.70;99.90;;;;;;5013962;28;19955;-57
2022/06/22 04:28:31;;;;;;;;;;;13.80;99.90;;;;;;5013781;28;20473;-56
2022/06/22 04:30:57;;;;;;;;;;;13.80;99.90;;;;;;5015087;28;20374;-58
2022/06/22 04:33:27;;;;;;;;;;;13.90;99.90;;;;;;5013708;28;19906;-57
2022/06/22 04:35:58;;;;;;;;;;;13.90;99.90;;;;;;5014087;28;19905;-58
2022/06/22 04:38:34;;;;;;;;;;;13.90;99.90;;;;;;5013835;28;19909;-57
2022/06/22 04:41:17;;;;;;;;;;;13.90;99.90;;;;;;5013685;28;19906;-56
2022/06/22 04:43:43;;;;;;;;;;;13.90;99.90;;;;;;5013612;28;20234;-57
2022/06/22 04:46:11;;;;;;;;;;;13.90;99.90;;;;;;5014197;28;19905;-59
2022/06/22 04:48:38;;;;;;;;;;;14.00;99.90;;;;;;5013500;28;19917;-57
2022/06/22 04:51:06;;;;;;;;;;;14.00;99.90;;;;;;5014747;28;20286;-59
2022/06/22 04:53:31;;;;;;;;;;;14.00;99.90;;;;;;5011582;28;19916;-59
2022/06/22 04:55:59;;;;;;;;;;;14.00;99.90;;;;;;5006672;28;19910;-59
2022/06/22 04:58:24;;;;;;;;;;;14.10;99.90;;;;;;5015130;28;20273;-56
2022/06/22 05:00:50;;;;;;;;;;;14.20;99.90;;;;;;5033814;28;19909;-58
2022/06/22 05:03:16;;;;;;;;;;;14.20;99.90;;;;;;5033873;28;19992;-58
2022/06/22 05:05:41;;;;;;;;;;;14.30;99.90;;;;;;5013342;28;19917;-55
2022/06/22 05:08:27;;;;;;;;;;;14.40;99.90;;;;;;5010002;28;19951;-59
2022/06/22 05:10:58;;;;;;;;;;;14.50;99.90;;;;;;5013713;28;19941;-59
2022/06/22 05:13:27;;;;;;;;;;;14.50;99.90;;;;;;5014038;28;19906;-57
2022/06/22 05:15:57;;;;;;;;;;;14.60;99.90;;;;;;5013917;28;19905;-58
2022/06/22 05:18:29;;;;;;;;;;;14.70;99.90;;;;;;5013457;28;20358;-58
2022/06/22 05:21:14;;;;;;;;;;;14.70;99.90;;;;;;5013744;28;19945;-59
2022/06/22 05:23:42;;;;;;;;;;;14.80;99.90;;;;;;5014076;28;19955;-58
2022/06/22 05:26:10;;;;;;;;;;;14.90;99.90;;;;;;5017379;28;19906;-57
2022/06/22 05:28:44;;;;;;;;;;;15.00;99.90;;;;;;5017132;28;20355;-57
2022/06/22 05:31:12;;;;;;;;;;;15.00;99.90;;;;;;5017390;28;19905;-58
2022/06/22 05:33:39;;;;;;;;;;;15.20;99.90;;;;;;5017476;28;19920;-58
2022/06/22 05:36:09;;;;;;;;;;;15.30;99.90;;;;;;5015883;28;19905;-58
2022/06/22 05:38:36;;;;;;;;;;;15.40;99.90;;;;;;5017109;28;20377;-56
2022/06/22 05:41:04;;;;;;;;;;;15.50;99.90;;;;;;5017168;28;19952;-57
2022/06/22 05:43:31;;;;;;;;;;;15.50;99.90;;;;;;5016827;28;20302;-57
2022/06/22 05:45:57;;;;;;;;;;;15.50;99.90;;;;;;5016900;28;19937;-58
2022/06/22 05:48:24;;;;;;;;;;;15.60;99.90;;;;;;5016581;28;19920;-56
2022/06/22 05:50:59;;;;;;;;;;;15.70;99.90;;;;;;5016513;28;20259;-56
2022/06/22 05:53:44;;;;;;;;;;;15.80;99.90;;;;;;5016560;28;19909;-56
2022/06/22 05:56:21;;;;;;;;;;;15.80;99.90;;;;;;5016758;28;19910;-55
2022/06/22 05:58:59;;;;;;;;;;;15.80;99.90;;;;;;5016569;28;19905;-57
2022/06/22 06:01:43;;;;;;;;;;;15.90;99.90;;;;;;5017178;28;19975;-52
2022/06/22 06:04:27;;;;;;;;;;;16.00;99.90;;;;;;5017225;28;20377;-55
2022/06/22 06:06:55;;;;;;;;;;;16.00;99.90;;;;;;5016703;28;19905;-55
2022/06/22 06:09:23;;;;;;;;;;;16.10;99.90;;;;;;5016766;28;19996;-57
2022/06/22 06:12:05;;;;;;;;;;;16.10;99.90;;;;;;5016553;28;19905;-56
2022/06/22 06:14:33;;;;;;;;;;;16.20;99.90;;;;;;5015937;28;19909;-56
2022/06/22 06:17:01;;;;;;;;;;;16.40;99.90;;;;;;5016505;28;19912;-57
2022/06/22 06:19:29;;;;;;;;;;;16.40;99.90;;;;;;5014719;28;19912;-56
2022/06/22 06:21:57;;;;;;;;;;;16.40;99.90;;;;;;5016102;28;19906;-58
2022/06/22 06:24:35;;;;;;;;;;;16.50;99.90;;;;;;5012484;28;19913;-56
2022/06/22 06:27:38;;;;;;;;;;;16.50;99.90;;;;;;5013408;28;19905;-58
2022/06/22 06:30:07;;;;;;;;;;;16.60;99.90;;;;;;5014438;28;19906;-59
2022/06/22 06:32:36;;;;;;;;;;;16.70;99.90;;;;;;5015968;28;19913;-59
2022/06/22 06:35:05;;;;;;;;;;;16.80;99.90;;;;;;5015580;28;19909;-59
2022/06/22 06:37:40;;;;;;;;;;;17.00;99.90;;;;;;5015511;28;19952;-59
2022/06/22 06:40:08;;;;;;;;;;;17.10;99.90;;;;;;5015829;28;19963;-59
2022/06/22 06:42:38;;;;;;;;;;;17.10;99.90;;;;;;5015421;28;19906;-59
2022/06/22 06:45:11;;;;;;;;;;;17.20;99.90;;;;;;5015783;28;19916;-59
2022/06/22 06:47:37;;;;;;;;;;;17.20;99.90;;;;;;5015917;28;19917;-59
2022/06/22 06:50:41;;;;;;;;;;;17.20;99.90;;;;;;5015445;28;19906;-59
2022/06/22 06:53:21;;;;;;;;;;;17.20;99.90;;;;;;4974493;28;19928;-58
2022/06/22 06:55:51;;;;;;;;;;;17.30;99.90;;;;;;4974378;28;19906;-58
2022/06/22 06:58:39;;;;;;;;;;;17.40;99.90;;;;;;4998591;28;20321;-59
2022/06/22 07:01:05;;;;;;;;;;;17.50;99.90;;;;;;5015213;28;20370;-57
2022/06/22 07:03:34;;;;;;;;;;;17.50;99.90;;;;;;5015167;28;20377;-59
2022/06/22 07:06:01;;;;;;;;;;;17.50;99.90;;;;;;5015364;28;19932;-58
2022/06/22 07:08:34;;;;;;;;;;;17.60;99.90;;;;;;5015338;28;19906;-60
2022/06/22 07:11:00;;;;;;;;;;;17.70;99.90;;;;;;5015351;28;19906;-60
2022/06/22 07:13:27;;;;;;;;;;;17.90;99.90;;;;;;5014812;28;19912;-57
2022/06/22 07:16:01;;;;;;;;;;;18.10;99.90;;;;;;5015504;28;19906;-59
2022/06/22 07:18:30;;;;;;;;;;;18.10;99.90;;;;;;5015215;28;19912;-60
2022/06/22 07:21:07;;;;;;;;;;;18.20;99.90;;;;;;5015283;28;19916;-60
2022/06/22 07:23:37;;;;;;;;;;;18.20;99.90;;;;;;5015202;28;19912;-59
2022/06/22 07:26:11;;;;;;;;;;;18.30;99.90;;;;;;5014410;28;20381;-60
2022/06/22 07:28:42;;;;;;;;;;;18.50;99.90;;;;;;5015255;28;19913;-59
2022/06/22 07:31:22;;;;;;;;;;;18.50;99.90;;;;;;5015007;28;19932;-59
2022/06/22 07:33:54;;;;;;;;;;;18.50;99.90;;;;;;5014738;28;19906;-59
2022/06/22 07:36:23;;;;;;;;;;;18.50;99.90;;;;;;5015237;28;20000;-59
2022/06/22 07:38:51;;;;;;;;;;;18.70;99.90;;;;;;5015015;28;19905;-57
2022/06/22 07:41:19;;;;;;;;;;;18.70;99.90;;;;;;5015289;28;19905;-59
2022/06/22 07:43:46;;;;;;;;;;;18.70;99.90;;;;;;5016389;28;19941;-60
2022/06/22 07:46:14;;;;;;;;;;;18.80;99.90;;;;;;5020288;28;19906;-59
2022/06/22 07:48:42;;;;;;;;;;;18.90;99.90;;;;;;5016766;28;19971;-58
2022/06/22 07:51:13;;;;;;;;;;;19.00;99.90;;;;;;5016522;28;20070;-59
2022/06/22 07:53:45;;;;;;;;;;;19.00;99.90;;;;;;5015184;28;19905;-58
2022/06/22 07:56:25;;;;;;;;;;;19.10;99.90;;;;;;5015070;28;19988;-58
2022/06/22 07:58:51;;;;;;;;;;;19.20;99.90;;;;;;5014954;28;19970;-59
2022/06/22 08:01:20;;;;;;;;;;;19.30;99.90;;;;;;5014615;28;19905;-59
2022/06/22 08:03:46;;;;;;;;;;;19.40;99.90;;;;;;5014339;28;20012;-59
2022/06/22 08:06:18;;;;;;;;;;;19.40;99.90;;;;;;5014650;28;20378;-59
2022/06/22 08:08:52;;;;;;;;;;;19.60;99.90;;;;;;5014593;28;19949;-60
2022/06/22 08:11:30;;;;;;;;;;;19.70;99.90;;;;;;5014688;28;19913;-58
2022/06/22 08:14:00;;;;;;;;;;;19.80;99.90;;;;;;5014242;28;19909;-59
2022/06/22 08:16:31;;;;;;;;;;;19.90;99.90;;;;;;5014707;28;19909;-60
2022/06/22 08:18:59;;;;;;;;;;;20.00;99.90;;;;;;5014085;28;19916;-60
2022/06/22 08:21:24;;;;;;;;;;;20.00;99.90;;;;;;5014210;28;19905;-60
2022/06/22 08:23:51;;;;;;;;;;;20.10;99.90;;;;;;5014554;28;20481;-58
2022/06/22 08:26:18;;;;;;;;;;;20.10;99.90;;;;;;5014395;28;19995;-60
2022/06/22 08:28:44;;;;;;;;;;;20.10;99.90;;;;;;5013947;28;19905;-58
2022/06/22 08:31:10;;;;;;;;;;;20.10;99.90;;;;;;5014137;28;19907;-58
2022/06/22 08:33:42;;;;;;;;;;;20.10;99.90;;;;;;5013738;28;19905;-60
2022/06/22 08:36:15;;;;;;;;;;;20.20;99.90;;;;;;5014033;28;19905;-60
2022/06/22 08:39:04;;;;;;;;;;;20.30;99.90;;;;;;5014275;28;19972;-60
2022/06/22 08:41:48;;;;;;;;;;;20.30;99.90;;;;;;4994531;28;20278;-60
2022/06/22 08:44:25;;;;;;;;;;;20.40;99.90;;;;;;5013802;28;19916;-60
2022/06/22 08:46:56;;;;;;;;;;;20.50;99.90;;;;;;5013824;28;19913;-60
2022/06/22 08:49:48;;;;;;;;;;;20.50;99.90;;;;;;5012301;28;19984;-60
2022/06/22 08:52:36;;;;;;;;;;;20.60;99.90;;;;;;5014182;28;19905;-60
2022/06/22 08:55:15;;;;;;;;;;;20.80;99.90;;;;;;5012486;28;19909;-60
2022/06/22 08:57:44;;;;;;;;;;;20.80;99.90;;;;;;5014354;28;19905;-60
2022/06/22 09:00:09;;;;;;;;;;;20.80;99.90;;;;;;5016882;28;19912;-60
2022/06/22 09:02:40;;;;;;;;;;;20.90;99.90;;;;;;5017785;28;19910;-58
2022/06/22 09:05:15;;;;;;;;;;;20.90;99.90;;;;;;5017530;28;19916;-59
2022/06/22 09:07:52;;;;;;;;;;;20.90;99.90;;;;;;5017490;28;19912;-60
2022/06/22 09:10:36;;;;;;;;;;;21.00;99.90;;;;;;5018420;28;19928;-61
2022/06/22 09:13:16;;;;;;;;;;;21.00;99.90;;;;;;5018172;28;19916;-60
2022/06/22 09:16:00;;;;;;;;;;;21.00;99.90;;;;;;5017260;28;19910;-60
2022/06/22 09:18:32;;;;;;;;;;;21.20;99.90;;;;;;5017524;28;19913;-61
2022/06/22 09:21:05;;;;;;;;;;;21.30;99.90;;;;;;5017427;28;19905;-61
2022/06/22 09:23:39;;;;;;;;;;;21.40;99.90;;;;;;5017836;28;19995;-60
2022/06/22 09:26:08;;;;;;;;;;;21.40;99.90;;;;;;5016418;28;19939;-55
2022/06/22 09:28:33;;;;;;;;;;;21.50;99.90;;;;;;5017215;28;20377;-59
2022/06/22 09:31:13;;;;;;;;;;;21.60;99.90;;;;;;5017661;28;19905;-60
2022/06/22 09:33:57;;;;;;;;;;;21.60;99.90;;;;;;5017459;28;19911;-60
2022/06/22 09:36:48;;;;;;;;;;;21.60;99.90;;;;;;5011320;28;20289;-60
2022/06/22 09:39:35;;;;;;;;;;;21.70;99.90;;;;;;5012504;28;19906;-60
2022/06/22 09:42:16;;;;;;;;;;;21.70;99.90;;;;;;5011793;28;19910;-60
2022/06/22 09:45:04;;;;;;;;;;;21.70;99.90;;;;;;5016143;28;20275;-59
2022/06/22 09:47:50;;;;;;;;;;;21.60;99.90;;;;;;5011334;28;20042;-60
2022/06/22 09:50:16;;;;;;;;;;;21.70;99.90;;;;;;4994268;28;20397;-60
2022/06/22 09:52:50;;;;;;;;;;;21.80;99.90;;;;;;5015554;28;19996;-60
2022/06/22 09:58:39;;;;;;;;;;;22.20;99.90;;;;;;4983807;28;19979;-58
2022/06/22 10:01:23;;;;;;;;;;;22.30;99.90;;;;;;5016478;28;19959;-57
2022/06/22 10:03:54;;;;;;;;;;;22.20;99.90;;;;;;5015677;28;19909;-58
2022/06/22 10:06:29;;;;;;;;;;;22.20;99.90;;;;;;5016591;28;19960;-59
2022/06/22 10:09:13;;;;;;;;;;;22.20;99.90;;;;;;5016585;28;19949;-59
2022/06/22 10:11:50;;;;;;;;;;;22.10;99.90;;;;;;5015488;28;19996;-57
2022/06/22 10:14:22;;;;;;;;;;;22.20;99.90;;;;;;5014893;28;20430;-58
2022/06/22 10:16:56;;;;;;;;;;;22.10;99.90;;;;;;5016355;28;19930;-58
2022/06/22 10:19:34;;;;;;;;;;;22.00;99.90;;;;;;5014353;28;19914;-59
2022/06/22 10:22:13;;;;;;;;;;;22.10;99.90;;;;;;5016874;28;19976;-58
2022/06/22 10:24:53;;;;;;;;;;;22.10;99.90;;;;;;5017014;28;19965;-60
2022/06/22 10:27:32;;;;;;;;;;;22.10;99.90;;;;;;4997653;28;19995;-58
2022/06/22 10:30:00;;;;;;;;;;;22.10;99.90;;;;;;5000643;28;19975;-58
2022/06/22 10:32:38;;;;;;;;;;;22.20;99.90;;;;;;5015976;28;19970;-60
2022/06/22 10:35:13;;;;;;;;;;;22.30;99.90;;;;;;5014330;28;19928;-60
2022/06/22 10:37:56;;;;;;;;;;;22.40;99.90;;;;;;5024731;28;20369;-59
2022/06/22 10:46:24;;;;;;;;;;;22.60;99.90;;;;;;5015746;28;20345;-60
2022/06/22 10:49:09;;;;;;;;;;;22.60;99.90;;;;;;5004164;28;20015;-59
2022/06/22 10:51:58;;;;;;;;;;;22.70;99.90;;;;;;5015375;28;19905;-58
2022/06/22 10:54:32;;;;;;;;;;;22.80;99.90;;;;;;5004008;28;19909;-60
2022/06/22 10:56:58;;;;;;;;;;;22.90;99.90;;;;;;5012422;28;19905;-60
2022/06/22 10:59:42;;;;;;;;;;;23.00;99.90;;;;;;5015017;28;20278;-58
2022/06/22 11:02:20;;;;;;;;;;;23.10;99.60;;;;;;5015325;28;19945;-59
2022/06/22 11:05:01;;;;;;;;;;;23.10;99.60;;;;;;5014991;28;19910;-59
2022/06/22 11:07:38;;;;;;;;;;;23.10;99.90;;;;;;5015865;28;19910;-58
2022/06/22 11:10:11;;;;;;;;;;;23.30;99.90;;;;;;5015137;28;19913;-59
2022/06/22 11:12:37;;;;;;;;;;;23.30;99.90;;;;;;5014940;28;20000;-58
2022/06/22 11:15:02;;;;;;;;;;;23.20;99.90;;;;;;5015020;28;19988;-60
2022/06/22 11:17:47;;;;;;;;;;;23.30;99.90;;;;;;5015183;28;19905;-58
2022/06/22 11:20:32;;;;;;;;;;;23.20;99.90;;;;;;5013516;28;19950;-58
2022/06/22 11:23:27;;;;;;;;;;;23.10;99.90;;;;;;5029802;28;19910;-58
2022/06/22 11:32:00;;;;;;;;;;;23.30;99.60;;;;;;5014692;28;19913;-58
2022/06/22 11:34:45;;;;;;;;;;;23.40;99.90;;;;;;5015458;28;20048;-57
2022/06/22 11:37:16;;;;;;;;;;;23.40;99.90;;;;;;4994832;28;19906;-58
2022/06/22 11:39:51;;;;;;;;;;;23.50;99.90;;;;;;4995037;28;20016;-57
2022/06/22 11:42:22;;;;;;;;;;;23.60;99.50;;;;;;4998445;28;19948;-57
2022/06/22 11:47:48;;;;;;;;;;;23.60;98.70;;;;;;5012784;28;20250;-58
2022/06/22 11:50:28;;;;;;;;;;;23.70;98.60;;;;;;5014459;28;19905;-57
2022/06/22 11:53:23;;;;;;;;;;;23.60;98.20;;;;;;5014587;28;19906;-58
2022/06/22 11:55:51;;;;;;;;;;;23.50;98.50;;;;;;5003015;28;20325;-57
2022/06/22 11:58:31;;;;;;;;;;;23.40;98.40;;;;;;5011275;28;19929;-59
2022/06/22 12:00:56;;;;;;;;;;;23.50;98.10;;;;;;5012194;28;19992;-57
2022/06/22 12:03:41;;;;;;;;;;;23.50;98.10;;;;;;5014139;28;19955;-58
2022/06/22 12:06:25;;;;;;;;;;;23.60;97.90;;;;;;5015647;28;19909;-57
2022/06/22 12:09:09;;;;;;;;;;;23.70;97.50;;;;;;5014435;28;19909;-58
2022/06/22 12:11:34;;;;;;;;;;;23.80;97.30;;;;;;4997288;28;19913;-57
2022/06/22 12:17:19;;;;;;;;;;;23.90;97.50;;;;;;5011796;28;19915;-57
2022/06/22 12:20:00;;;;;;;;;;;23.80;96.10;;;;;;5010883;28;20014;-57
2022/06/22 12:22:44;;;;;;;;;;;23.70;96.20;;;;;;5011972;28;19905;-55
2022/06/22 12:25:22;;;;;;;;;;;23.70;96.60;;;;;;5011415;28;19935;-56
2022/06/22 12:28:11;;;;;;;;;;;23.80;96.90;;;;;;5028573;28;19905;-58
2022/06/22 12:30:59;;;;;;;;;;;23.90;97.10;;;;;;5025583;28;19905;-56
2022/06/22 12:33:36;;;;;;;;;;;23.90;97.40;;;;;;5033346;28;19911;-57
2022/06/22 12:36:01;;;;;;;;;;;24.00;97.20;;;;;;5033835;28;19912;-57
2022/06/22 12:38:31;;;;;;;;;;;24.00;97.20;;;;;;5033910;28;19905;-56
2022/06/22 12:41:00;;;;;;;;;;;24.10;97.10;;;;;;5033874;28;19938;-54
2022/06/22 12:43:44;;;;;;;;;;;23.90;96.80;;;;;;5033635;28;19905;-53
2022/06/22 12:46:17;;;;;;;;;;;24.00;97.00;;;;;;5032600;28;20290;-56
2022/06/22 12:48:58;;;;;;;;;;;24.00;97.20;;;;;;5033607;28;20026;-53
2022/06/22 12:51:26;;;;;;;;;;;24.10;96.40;;;;;;5032081;28;19916;-52
2022/06/22 12:54:07;;;;;;;;;;;24.20;96.80;;;;;;5033565;28;19908;-55
2022/06/22 12:56:52;;;;;;;;;;;24.20;96.50;;;;;;5033962;28;20355;-54
2022/06/22 12:59:22;;;;;;;;;;;24.40;95.90;;;;;;5033963;28;19905;-51
2022/06/22 13:01:48;;;;;;;;;;;24.50;95.90;;;;;;5032950;28;20279;-53
2022/06/22 13:04:19;;;;;;;;;;;24.50;96.00;;;;;;5034338;28;19934;-55
2022/06/22 13:06:50;;;;;;;;;;;24.50;95.90;;;;;;5033889;28;20270;-56
2022/06/22 13:09:16;;;;;;;;;;;24.50;95.70;;;;;;5033896;28;20435;-52
2022/06/22 13:11:43;;;;;;;;;;;24.50;95.90;;;;;;5033511;28;19999;-56
2022/06/22 13:14:21;;;;;;;;;;;24.40;95.30;;;;;;5033552;28;19905;-53
2022/06/22 13:16:51;;;;;;;;;;;24.40;95.30;;;;;;5032746;28;19924;-52
2022/06/22 13:19:22;;;;;;;;;;;24.40;95.20;;;;;;5033392;28;19905;-51
2022/06/22 13:22:00;;;;;;;;;;;24.40;95.10;;;;;;5032555;28;19991;-52
2022/06/22 13:24:28;;;;;;;;;;;24.40;94.60;;;;;;5033316;28;19909;-51
2022/06/22 13:26:59;;;;;;;;;;;24.40;94.60;;;;;;5033207;28;19905;-51
2022/06/22 13:29:31;;;;;;;;;;;24.50;95.00;;;;;;5033816;28;19905;-53
2022/06/22 13:31:59;;;;;;;;;;;24.50;95.10;;;;;;5033178;28;20390;-51
2022/06/22 13:34:27;;;;;;;;;;;24.60;94.60;;;;;;5033705;28;19905;-51
2022/06/22 13:37:02;;;;;;;;;;;24.60;94.80;;;;;;5032643;28;19905;-54
2022/06/22 13:39:27;;;;;;;;;;;24.70;94.50;;;;;;5033095;28;19948;-53
2022/06/22 13:42:08;;;;;;;;;;;24.80;94.30;;;;;;5033186;28;19952;-56
2022/06/22 13:44:40;;;;;;;;;;;24.70;93.90;;;;;;5033537;28;19909;-54
2022/06/22 13:47:21;;;;;;;;;;;24.70;94.10;;;;;;5035540;28;20340;-54
2022/06/22 13:50:21;;;;;;;;;;;24.80;93.40;;;;;;5005492;28;20342;-53
2022/06/22 13:52:49;;;;;;;;;;;24.70;93.30;;;;;;5016123;28;19925;-56
2022/06/22 13:55:24;;;;;;;;;;;24.80;92.90;;;;;;5016951;28;19913;-53
2022/06/22 13:57:56;;;;;;;;;;;24.80;92.70;;;;;;5017331;28;19906;-54
2022/06/22 14:00:51;;;;;;;;;;;24.90;92.60;;;;;;5017108;28;19913;-54
2022/06/22 14:03:28;;;;;;;;;;;24.90;92.10;;;;;;4966742;28;20291;-57
2022/06/22 14:06:14;;;;;;;;;;;25.00;91.90;;;;;;5018660;28;19956;-56
2022/06/22 14:08:43;;;;;;;;;;;25.00;91.00;;;;;;5021061;28;20023;-53
2022/06/22 14:11:14;;;;;;;;;;;24.90;91.20;;;;;;5018934;28;19906;-57
2022/06/22 14:13:49;;;;;;;;;;;25.00;91.00;;;;;;5014207;28;19941;-56
2022/06/22 14:16:28;;;;;;;;;;;25.00;90.40;;;;;;5012505;28;19905;-57
2022/06/22 14:18:57;;;;;;;;;;;25.00;90.60;;;;;;5013915;28;20370;-55
2022/06/22 14:21:30;;;;;;;;;;;25.00;90.30;;;;;;5013374;28;19959;-54
2022/06/22 14:23:56;;;;;;;;;;;25.00;90.20;;;;;;5013302;28;20286;-57
2022/06/22 14:26:21;;;;;;;;;;;25.00;88.70;;;;;;5015655;28;19909;-55
2022/06/22 14:28:56;;;;;;;;;;;25.10;89.50;;;;;;5015784;28;20378;-54
2022/06/22 14:31:26;;;;;;;;;;;25.10;88.30;;;;;;5012943;28;20662;-55
2022/06/22 14:34:04;;;;;;;;;;;25.10;87.60;;;;;;5013301;28;19909;-54
2022/06/22 14:36:45;;;;;;;;;;;25.10;87.10;;;;;;5014508;28;19932;-54
2022/06/22 14:39:16;;;;;;;;;;;25.20;85.80;;;;;;5010822;28;19906;-53
2022/06/22 14:41:45;;;;;;;;;;;25.10;85.30;;;;;;5015231;28;20298;-53
2022/06/22 14:44:17;;;;;;;;;;;25.10;85.70;;;;;;5013115;28;19917;-53
2022/06/22 14:47:01;;;;;;;;;;;25.20;84.60;;;;;;5014005;28;19917;-55
2022/06/22 14:49:26;;;;;;;;;;;25.30;84.20;;;;;;5013174;28;19917;-53
2022/06/22 14:51:58;;;;;;;;;;;25.40;83.30;;;;;;5015901;28;20406;-57
2022/06/22 14:54:24;;;;;;;;;;;25.50;83.00;;;;;;5012480;28;19906;-54
2022/06/22 14:56:49;;;;;;;;;;;25.60;83.00;;;;;;5014051;28;19912;-55
2022/06/22 14:59:15;;;;;;;;;;;25.50;82.00;;;;;;5015084;28;19905;-55
2022/06/22 15:01:49;;;;;;;;;;;25.50;82.40;;;;;;5016467;28;19963;-51
2022/06/22 15:04:21;;;;;;;;;;;25.50;81.80;;;;;;5034666;28;19945;-56
2022/06/22 15:07:01;;;;;;;;;;;25.50;81.70;;;;;;5035072;28;20366;-51
2022/06/22 15:09:33;;;;;;;;;;;25.50;82.40;;;;;;5033127;28;19905;-54
2022/06/22 15:14:49;;;;;;;;;;;25.40;81.30;;;;;;5035231;28;19999;-52
2022/06/22 15:17:30;;;;;;;;;;;25.40;81.10;;;;;;5033217;28;19905;-55